sensor_id;sensor_type;location;lat;lon;timestamp;P1;durP1;ratioP1;P2;durP2;ratioP2
69750;SDS011;57335;52.288;6.056;2023-04-06T07:28:06;18.80;;;9.00;;
69750;SDS011;57335;52.288;6.056;2023-04-06T07:30:32;18.80;;;9.23;;
69750;SDS011;57335;52.288;6.056;2023-04-06T07:33:02;19.13;;;9.85;;
69750;SDS011;57335;52.288;6.056;2023-04-06T07:35:28;17.20;;;9.05;;
69750;SDS011;57335;52.288;6.056;2023-04-06T07:37:54;19.45;;;10.50;;
69750;SDS011;57335;52.288;6.056;2023-04-06T07:40:21;19.83;;;10.05;;
69750;SDS011;57335;52.288;6.056;2023-04-06T07:42:48;21.63;;;11.18;;
69750;SDS011;57335;52.288;6.056;2023-04-06T07:45:14;21.00;;;10.02;;
69750;SDS011;57335;52.288;6.056;2023-04-06T07:47:41;19.08;;;9.90;;
69750;SDS011;57335;52.288;6.056;2023-04-06T07:50:08;18.60;;;10.05;;
69750;SDS011;57335;52.288;6.056;2023-04-06T07:52:35;19.10;;;9.40;;
69750;SDS011;57335;52.288;6.056;2023-04-06T07:55:03;18.67;;;9.70;;
69750;SDS011;57335;52.288;6.056;2023-04-06T07:57:30;18.17;;;9.80;;
69750;SDS011;57335;52.288;6.056;2023-04-06T07:59:57;17.38;;;9.63;;
69750;SDS011;57335;52.288;6.056;2023-04-06T08:02:24;20.10;;;10.40;;
69750;SDS011;57335;52.288;6.056;2023-04-06T08:04:50;17.65;;;9.25;;
69750;SDS011;57335;52.288;6.056;2023-04-06T08:07:17;19.65;;;10.10;;
69750;SDS011;57335;52.288;6.056;2023-04-06T08:09:43;17.80;;;8.75;;
69750;SDS011;57335;52.288;6.056;2023-04-06T08:12:10;18.75;;;9.63;;
69750;SDS011;57335;52.288;6.056;2023-04-06T08:14:37;18.85;;;8.77;;
69750;SDS011;57335;52.288;6.056;2023-04-06T08:17:03;18.58;;;9.20;;
69750;SDS011;57335;52.288;6.056;2023-04-06T08:19:31;20.20;;;9.60;;
69750;SDS011;57335;52.288;6.056;2023-04-06T08:21:58;20.58;;;10.00;;
69750;SDS011;57335;52.288;6.056;2023-04-06T08:24:25;19.02;;;10.27;;
69750;SDS011;57335;52.288;6.056;2023-04-06T08:26:51;18.90;;;9.40;;
69750;SDS011;57335;52.288;6.056;2023-04-06T08:29:19;18.52;;;9.27;;
69750;SDS011;57335;52.288;6.056;2023-04-06T08:31:45;21.17;;;9.95;;
69750;SDS011;57335;52.288;6.056;2023-04-06T08:34:12;19.45;;;10.02;;
69750;SDS011;57335;52.288;6.056;2023-04-06T08:36:43;20.70;;;9.90;;
69750;SDS011;57335;52.288;6.056;2023-04-06T08:39:12;17.70;;;9.13;;
69750;SDS011;57335;52.288;6.056;2023-04-06T08:41:41;20.10;;;9.85;;
69750;SDS011;57335;52.288;6.056;2023-04-06T08:44:08;25.10;;;11.55;;
69750;SDS011;57335;52.288;6.056;2023-04-06T08:46:35;18.73;;;10.00;;
69750;SDS011;57335;52.288;6.056;2023-04-06T08:49:02;20.90;;;9.90;;
69750;SDS011;57335;52.288;6.056;2023-04-06T08:51:29;17.90;;;9.13;;
69750;SDS011;57335;52.288;6.056;2023-04-06T08:53:56;17.42;;;8.20;;
69750;SDS011;57335;52.288;6.056;2023-04-06T08:56:24;18.60;;;9.70;;
69750;SDS011;57335;52.288;6.056;2023-04-06T08:58:52;22.73;;;10.40;;
69750;SDS011;57335;52.288;6.056;2023-04-06T09:01:21;20.75;;;9.90;;
69750;SDS011;57335;52.288;6.056;2023-04-06T09:03:51;22.13;;;10.10;;
69750;SDS011;57335;52.288;6.056;2023-04-06T09:06:22;22.25;;;10.55;;
69750;SDS011;57335;52.288;6.056;2023-04-06T09:08:49;21.10;;;8.98;;
69750;SDS011;57335;52.288;6.056;2023-04-06T09:11:19;21.55;;;9.90;;
69750;SDS011;57335;52.288;6.056;2023-04-06T09:13:49;21.67;;;9.95;;
69750;SDS011;57335;52.288;6.056;2023-04-06T09:16:22;21.67;;;10.40;;
69750;SDS011;57335;52.288;6.056;2023-04-06T09:18:49;21.77;;;9.82;;
69750;SDS011;57335;52.288;6.056;2023-04-06T09:21:17;20.35;;;9.73;;
69750;SDS011;57335;52.288;6.056;2023-04-06T09:23:44;22.02;;;9.88;;
69750;SDS011;57335;52.288;6.056;2023-04-06T09:26:14;19.23;;;9.63;;
69750;SDS011;57335;52.288;6.056;2023-04-06T09:28:49;20.42;;;9.50;;
69750;SDS011;57335;52.288;6.056;2023-04-06T09:31:25;21.95;;;10.18;;
69750;SDS011;57335;52.288;6.056;2023-04-06T09:33:56;21.63;;;9.32;;
69750;SDS011;57335;52.288;6.056;2023-04-06T09:36:33;19.77;;;9.70;;
69750;SDS011;57335;52.288;6.056;2023-04-06T09:39:01;20.92;;;9.85;;
69750;SDS011;57335;52.288;6.056;2023-04-06T09:41:30;22.10;;;10.15;;
69750;SDS011;57335;52.288;6.056;2023-04-06T09:44:03;19.80;;;10.18;;
69750;SDS011;57335;52.288;6.056;2023-04-06T09:46:32;22.17;;;9.50;;
69750;SDS011;57335;52.288;6.056;2023-04-06T09:49:16;18.77;;;9.43;;
69750;SDS011;57335;52.288;6.056;2023-04-06T09:51:45;21.10;;;9.95;;
69750;SDS011;57335;52.288;6.056;2023-04-06T09:54:17;21.60;;;9.95;;
69750;SDS011;57335;52.288;6.056;2023-04-06T09:59:22;21.65;;;10.38;;
69750;SDS011;57335;52.288;6.056;2023-04-06T10:01:58;22.45;;;9.35;;
69750;SDS011;57335;52.288;6.056;2023-04-06T10:07:09;21.83;;;9.85;;
69750;SDS011;57335;52.288;6.056;2023-04-06T10:09:36;20.70;;;10.32;;
69750;SDS011;57335;52.288;6.056;2023-04-06T10:12:04;21.05;;;10.05;;
69750;SDS011;57335;52.288;6.056;2023-04-06T10:14:32;22.67;;;10.15;;
69750;SDS011;57335;52.288;6.056;2023-04-06T10:17:00;22.60;;;10.38;;
69750;SDS011;57335;52.288;6.056;2023-04-06T10:19:28;18.98;;;9.57;;
69750;SDS011;57335;52.288;6.056;2023-04-06T10:22:02;21.38;;;9.98;;
69750;SDS011;57335;52.288;6.056;2023-04-06T10:24:31;23.48;;;10.88;;
69750;SDS011;57335;52.288;6.056;2023-04-06T10:26:58;22.13;;;10.45;;
69750;SDS011;57335;52.288;6.056;2023-04-06T10:29:27;21.45;;;9.65;;
69750;SDS011;57335;52.288;6.056;2023-04-06T10:31:54;19.70;;;9.23;;
69750;SDS011;57335;52.288;6.056;2023-04-06T10:34:20;20.90;;;10.10;;
69750;SDS011;57335;52.288;6.056;2023-04-06T10:36:47;21.15;;;9.90;;
69750;SDS011;57335;52.288;6.056;2023-04-06T10:39:14;22.70;;;10.70;;
69750;SDS011;57335;52.288;6.056;2023-04-06T10:41:41;21.13;;;10.27;;
69750;SDS011;57335;52.288;6.056;2023-04-06T10:44:17;21.65;;;10.32;;
69750;SDS011;57335;52.288;6.056;2023-04-06T10:46:52;22.88;;;9.68;;
69750;SDS011;57335;52.288;6.056;2023-04-06T10:49:28;21.88;;;10.35;;
69750;SDS011;57335;52.288;6.056;2023-04-06T10:51:55;21.77;;;10.15;;
69750;SDS011;57335;52.288;6.056;2023-04-06T10:54:23;23.73;;;10.98;;
69750;SDS011;57335;52.288;6.056;2023-04-06T10:56:51;23.98;;;10.70;;
69750;SDS011;57335;52.288;6.056;2023-04-06T10:59:20;21.52;;;9.68;;
69750;SDS011;57335;52.288;6.056;2023-04-06T11:01:48;25.73;;;10.38;;
69750;SDS011;57335;52.288;6.056;2023-04-06T11:04:15;23.33;;;10.93;;
69750;SDS011;57335;52.288;6.056;2023-04-06T11:06:47;24.15;;;10.35;;
69750;SDS011;57335;52.288;6.056;2023-04-06T11:09:27;23.85;;;10.40;;
69750;SDS011;57335;52.288;6.056;2023-04-06T11:11:56;24.42;;;10.68;;
69750;SDS011;57335;52.288;6.056;2023-04-06T11:14:23;22.48;;;10.30;;
69750;SDS011;57335;52.288;6.056;2023-04-06T11:16:50;23.00;;;9.80;;
69750;SDS011;57335;52.288;6.056;2023-04-06T11:19:17;19.83;;;8.73;;
69750;SDS011;57335;52.288;6.056;2023-04-06T11:21:47;18.85;;;8.15;;
69750;SDS011;57335;52.288;6.056;2023-04-06T11:24:16;19.67;;;8.02;;
69750;SDS011;57335;52.288;6.056;2023-04-06T11:26:46;17.58;;;7.82;;
69750;SDS011;57335;52.288;6.056;2023-04-06T11:29:15;20.95;;;9.05;;
69750;SDS011;57335;52.288;6.056;2023-04-06T11:32:02;17.83;;;7.07;;
69750;SDS011;57335;52.288;6.056;2023-04-06T11:34:36;18.30;;;8.02;;
69750;SDS011;57335;52.288;6.056;2023-04-06T11:37:04;17.30;;;7.97;;
69750;SDS011;57335;52.288;6.056;2023-04-06T11:39:38;16.45;;;7.68;;
69750;SDS011;57335;52.288;6.056;2023-04-06T11:42:06;17.33;;;7.45;;
69750;SDS011;57335;52.288;6.056;2023-04-06T11:47:01;12.40;;;5.32;;
69750;SDS011;57335;52.288;6.056;2023-04-06T11:49:29;11.35;;;5.28;;
69750;SDS011;57335;52.288;6.056;2023-04-06T11:51:56;14.13;;;6.22;;
69750;SDS011;57335;52.288;6.056;2023-04-06T11:57:03;14.68;;;5.82;;
69750;SDS011;57335;52.288;6.056;2023-04-06T11:59:31;12.93;;;6.30;;
69750;SDS011;57335;52.288;6.056;2023-04-06T12:01:58;14.27;;;6.30;;
69750;SDS011;57335;52.288;6.056;2023-04-06T12:04:25;19.08;;;7.28;;
69750;SDS011;57335;52.288;6.056;2023-04-06T12:06:51;14.10;;;5.97;;
69750;SDS011;57335;52.288;6.056;2023-04-06T12:09:18;14.40;;;6.75;;
69750;SDS011;57335;52.288;6.056;2023-04-06T12:11:44;14.18;;;6.75;;
69750;SDS011;57335;52.288;6.056;2023-04-06T12:14:11;17.35;;;7.97;;
69750;SDS011;57335;52.288;6.056;2023-04-06T12:16:37;15.95;;;7.88;;
69750;SDS011;57335;52.288;6.056;2023-04-06T12:19:04;17.50;;;7.80;;
69750;SDS011;57335;52.288;6.056;2023-04-06T12:21:31;18.77;;;8.60;;
69750;SDS011;57335;52.288;6.056;2023-04-06T12:23:58;17.23;;;8.32;;
69750;SDS011;57335;52.288;6.056;2023-04-06T12:26:25;18.88;;;8.15;;
69750;SDS011;57335;52.288;6.056;2023-04-06T12:28:52;17.88;;;8.00;;
69750;SDS011;57335;52.288;6.056;2023-04-06T12:31:19;16.10;;;7.60;;
69750;SDS011;57335;52.288;6.056;2023-04-06T12:33:47;17.23;;;7.78;;
69750;SDS011;57335;52.288;6.056;2023-04-06T12:36:15;19.48;;;8.63;;
69750;SDS011;57335;52.288;6.056;2023-04-06T12:38:42;21.15;;;9.23;;
69750;SDS011;57335;52.288;6.056;2023-04-06T12:41:08;19.13;;;8.13;;
69750;SDS011;57335;52.288;6.056;2023-04-06T12:43:35;17.83;;;8.98;;
69750;SDS011;57335;52.288;6.056;2023-04-06T12:46:01;19.95;;;8.98;;
69750;SDS011;57335;52.288;6.056;2023-04-06T12:48:28;19.38;;;8.23;;
69750;SDS011;57335;52.288;6.056;2023-04-06T12:50:55;16.55;;;8.07;;
69750;SDS011;57335;52.288;6.056;2023-04-06T12:53:24;18.27;;;8.95;;
69750;SDS011;57335;52.288;6.056;2023-04-06T12:55:51;17.25;;;8.10;;
69750;SDS011;57335;52.288;6.056;2023-04-06T12:58:17;16.85;;;8.10;;
69750;SDS011;57335;52.288;6.056;2023-04-06T13:00:44;18.80;;;8.23;;
69750;SDS011;57335;52.288;6.056;2023-04-06T13:03:10;18.25;;;7.88;;
69750;SDS011;57335;52.288;6.056;2023-04-06T13:05:43;18.38;;;8.20;;
69750;SDS011;57335;52.288;6.056;2023-04-06T13:08:10;18.02;;;7.55;;
69750;SDS011;57335;52.288;6.056;2023-04-06T13:10:37;16.98;;;8.20;;
69750;SDS011;57335;52.288;6.056;2023-04-06T13:13:04;17.80;;;7.95;;
69750;SDS011;57335;52.288;6.056;2023-04-06T13:15:31;16.85;;;8.18;;
69750;SDS011;57335;52.288;6.056;2023-04-06T13:17:57;17.85;;;7.38;;
69750;SDS011;57335;52.288;6.056;2023-04-06T13:20:24;15.57;;;7.20;;
69750;SDS011;57335;52.288;6.056;2023-04-06T13:22:50;15.07;;;6.05;;
69750;SDS011;57335;52.288;6.056;2023-04-06T13:25:17;14.52;;;6.28;;
69750;SDS011;57335;52.288;6.056;2023-04-06T13:27:43;13.27;;;6.40;;
69750;SDS011;57335;52.288;6.056;2023-04-06T13:30:10;14.18;;;5.82;;
69750;SDS011;57335;52.288;6.056;2023-04-06T13:32:37;12.48;;;5.10;;
69750;SDS011;57335;52.288;6.056;2023-04-06T13:35:03;14.80;;;5.72;;
69750;SDS011;57335;52.288;6.056;2023-04-06T13:37:31;16.15;;;6.38;;
69750;SDS011;57335;52.288;6.056;2023-04-06T13:39:58;13.77;;;5.50;;
69750;SDS011;57335;52.288;6.056;2023-04-06T13:42:24;13.02;;;6.13;;
69750;SDS011;57335;52.288;6.056;2023-04-06T13:44:57;14.10;;;5.78;;
69750;SDS011;57335;52.288;6.056;2023-04-06T13:50:46;12.55;;;4.88;;
69750;SDS011;57335;52.288;6.056;2023-04-06T13:53:13;11.20;;;4.78;;
69750;SDS011;57335;52.288;6.056;2023-04-06T13:55:41;11.73;;;5.13;;
69750;SDS011;57335;52.288;6.056;2023-04-06T13:58:08;12.38;;;5.05;;
69750;SDS011;57335;52.288;6.056;2023-04-06T14:00:36;11.18;;;5.13;;
69750;SDS011;57335;52.288;6.056;2023-04-06T14:03:16;13.45;;;5.50;;
69750;SDS011;57335;52.288;6.056;2023-04-06T14:05:52;13.52;;;6.00;;
69750;SDS011;57335;52.288;6.056;2023-04-06T14:08:19;15.07;;;6.05;;
69750;SDS011;57335;52.288;6.056;2023-04-06T14:10:48;12.93;;;5.43;;
69750;SDS011;57335;52.288;6.056;2023-04-06T14:13:15;13.73;;;5.68;;
69750;SDS011;57335;52.288;6.056;2023-04-06T14:15:41;12.45;;;5.10;;
69750;SDS011;57335;52.288;6.056;2023-04-06T14:18:08;14.77;;;5.65;;
69750;SDS011;57335;52.288;6.056;2023-04-06T14:20:35;11.07;;;5.13;;
69750;SDS011;57335;52.288;6.056;2023-04-06T14:23:02;14.02;;;5.53;;
69750;SDS011;57335;52.288;6.056;2023-04-06T14:25:32;13.57;;;5.70;;
69750;SDS011;57335;52.288;6.056;2023-04-06T14:28:04;14.10;;;6.03;;
69750;SDS011;57335;52.288;6.056;2023-04-06T14:30:33;12.88;;;5.22;;
69750;SDS011;57335;52.288;6.056;2023-04-06T14:33:00;12.90;;;5.95;;
69750;SDS011;57335;52.288;6.056;2023-04-06T14:35:29;13.43;;;6.10;;
69750;SDS011;57335;52.288;6.056;2023-04-06T14:37:56;14.10;;;6.22;;
69750;SDS011;57335;52.288;6.056;2023-04-06T14:40:23;11.60;;;5.43;;
69750;SDS011;57335;52.288;6.056;2023-04-06T14:42:50;16.90;;;6.13;;
69750;SDS011;57335;52.288;6.056;2023-04-06T14:45:17;13.50;;;5.85;;
69750;SDS011;57335;52.288;6.056;2023-04-06T14:47:44;15.57;;;5.75;;
69750;SDS011;57335;52.288;6.056;2023-04-06T14:50:10;13.07;;;5.88;;
69750;SDS011;57335;52.288;6.056;2023-04-06T14:52:36;13.75;;;5.75;;
69750;SDS011;57335;52.288;6.056;2023-04-06T14:55:03;12.52;;;5.40;;
69750;SDS011;57335;52.288;6.056;2023-04-06T14:57:30;13.75;;;6.50;;
69750;SDS011;57335;52.288;6.056;2023-04-06T14:59:56;13.45;;;5.30;;
69750;SDS011;57335;52.288;6.056;2023-04-06T15:02:23;14.88;;;6.35;;
69750;SDS011;57335;52.288;6.056;2023-04-06T15:04:49;12.40;;;5.60;;
69750;SDS011;57335;52.288;6.056;2023-04-06T15:07:18;13.00;;;5.55;;
69750;SDS011;57335;52.288;6.056;2023-04-06T15:09:45;13.45;;;5.40;;
69750;SDS011;57335;52.288;6.056;2023-04-06T15:12:11;16.08;;;6.63;;
69750;SDS011;57335;52.288;6.056;2023-04-06T15:14:38;16.00;;;7.05;;
69750;SDS011;57335;52.288;6.056;2023-04-06T15:17:04;14.30;;;5.55;;
69750;SDS011;57335;52.288;6.056;2023-04-06T15:19:30;14.25;;;6.38;;
69750;SDS011;57335;52.288;6.056;2023-04-06T15:21:57;14.32;;;6.07;;
69750;SDS011;57335;52.288;6.056;2023-04-06T15:24:26;15.50;;;6.32;;
69750;SDS011;57335;52.288;6.056;2023-04-06T15:26:52;14.85;;;6.40;;
69750;SDS011;57335;52.288;6.056;2023-04-06T15:29:18;15.13;;;6.32;;
69750;SDS011;57335;52.288;6.056;2023-04-06T15:31:45;14.25;;;6.10;;
69750;SDS011;57335;52.288;6.056;2023-04-06T15:34:11;14.25;;;5.95;;
69750;SDS011;57335;52.288;6.056;2023-04-06T15:36:37;14.48;;;6.43;;
69750;SDS011;57335;52.288;6.056;2023-04-06T15:39:04;13.75;;;5.90;;
69750;SDS011;57335;52.288;6.056;2023-04-06T15:41:30;12.63;;;5.50;;
69750;SDS011;57335;52.288;6.056;2023-04-06T15:43:57;13.32;;;5.35;;
69750;SDS011;57335;52.288;6.056;2023-04-06T15:46:23;12.57;;;5.45;;
69750;SDS011;57335;52.288;6.056;2023-04-06T15:48:50;14.10;;;5.82;;
69750;SDS011;57335;52.288;6.056;2023-04-06T15:51:17;13.57;;;5.55;;
69750;SDS011;57335;52.288;6.056;2023-04-06T15:53:43;13.80;;;6.05;;
69750;SDS011;57335;52.288;6.056;2023-04-06T15:56:10;15.25;;;6.38;;
69750;SDS011;57335;52.288;6.056;2023-04-06T15:58:37;14.10;;;5.90;;
69750;SDS011;57335;52.288;6.056;2023-04-06T16:01:11;15.88;;;5.57;;
69750;SDS011;57335;52.288;6.056;2023-04-06T16:03:38;15.13;;;6.57;;
69750;SDS011;57335;52.288;6.056;2023-04-06T16:06:05;16.38;;;6.63;;
69750;SDS011;57335;52.288;6.056;2023-04-06T16:08:34;15.40;;;6.15;;
69750;SDS011;57335;52.288;6.056;2023-04-06T16:11:01;15.23;;;6.00;;
69750;SDS011;57335;52.288;6.056;2023-04-06T16:13:28;17.55;;;6.88;;
69750;SDS011;57335;52.288;6.056;2023-04-06T16:15:54;16.00;;;6.38;;
69750;SDS011;57335;52.288;6.056;2023-04-06T16:18:20;16.50;;;6.70;;
69750;SDS011;57335;52.288;6.056;2023-04-06T16:20:48;16.52;;;7.03;;
69750;SDS011;57335;52.288;6.056;2023-04-06T16:23:14;14.43;;;6.63;;
69750;SDS011;57335;52.288;6.056;2023-04-06T16:25:41;15.60;;;6.60;;
69750;SDS011;57335;52.288;6.056;2023-04-06T16:28:07;16.33;;;6.32;;
69750;SDS011;57335;52.288;6.056;2023-04-06T16:30:37;13.90;;;6.35;;
69750;SDS011;57335;52.288;6.056;2023-04-06T16:33:06;16.17;;;6.78;;
69750;SDS011;57335;52.288;6.056;2023-04-06T16:35:33;16.33;;;6.43;;
69750;SDS011;57335;52.288;6.056;2023-04-06T16:37:59;16.13;;;7.30;;
69750;SDS011;57335;52.288;6.056;2023-04-06T16:40:26;16.15;;;7.22;;
69750;SDS011;57335;52.288;6.056;2023-04-06T16:42:52;18.15;;;7.68;;
69750;SDS011;57335;52.288;6.056;2023-04-06T16:45:18;19.20;;;6.95;;
69750;SDS011;57335;52.288;6.056;2023-04-06T16:47:45;17.35;;;7.47;;
69750;SDS011;57335;52.288;6.056;2023-04-06T16:50:11;16.73;;;7.07;;
69750;SDS011;57335;52.288;6.056;2023-04-06T16:52:38;16.52;;;6.90;;
69750;SDS011;57335;52.288;6.056;2023-04-06T16:55:04;15.27;;;7.13;;
69750;SDS011;57335;52.288;6.056;2023-04-06T16:57:31;19.33;;;7.55;;
69750;SDS011;57335;52.288;6.056;2023-04-06T16:59:57;18.02;;;7.93;;
69750;SDS011;57335;52.288;6.056;2023-04-06T17:02:25;18.65;;;7.40;;
69750;SDS011;57335;52.288;6.056;2023-04-06T17:04:51;19.52;;;7.43;;
69750;SDS011;57335;52.288;6.056;2023-04-06T17:07:18;16.05;;;7.38;;
69750;SDS011;57335;52.288;6.056;2023-04-06T17:09:44;17.17;;;7.28;;
69750;SDS011;57335;52.288;6.056;2023-04-06T17:12:11;15.00;;;6.95;;
69750;SDS011;57335;52.288;6.056;2023-04-06T17:14:38;14.63;;;6.35;;
69750;SDS011;57335;52.288;6.056;2023-04-06T17:17:05;18.08;;;7.75;;
69750;SDS011;57335;52.288;6.056;2023-04-06T17:19:52;17.90;;;7.82;;
69750;SDS011;57335;52.288;6.056;2023-04-06T17:22:18;20.70;;;7.78;;
69750;SDS011;57335;52.288;6.056;2023-04-06T17:24:46;18.35;;;7.97;;
69750;SDS011;57335;52.288;6.056;2023-04-06T17:27:13;18.38;;;7.82;;
69750;SDS011;57335;52.288;6.056;2023-04-06T17:29:39;18.63;;;7.95;;
69750;SDS011;57335;52.288;6.056;2023-04-06T17:32:06;17.02;;;7.80;;
69750;SDS011;57335;52.288;6.056;2023-04-06T17:34:32;19.25;;;7.82;;
69750;SDS011;57335;52.288;6.056;2023-04-06T17:36:58;19.33;;;7.40;;
69750;SDS011;57335;52.288;6.056;2023-04-06T17:39:25;20.20;;;8.55;;
69750;SDS011;57335;52.288;6.056;2023-04-06T17:41:51;19.35;;;8.23;;
69750;SDS011;57335;52.288;6.056;2023-04-06T17:44:18;22.52;;;8.82;;
69750;SDS011;57335;52.288;6.056;2023-04-06T17:46:44;17.33;;;7.22;;
69750;SDS011;57335;52.288;6.056;2023-04-06T17:49:10;18.02;;;8.40;;
69750;SDS011;57335;52.288;6.056;2023-04-06T17:51:37;16.08;;;7.40;;
69750;SDS011;57335;52.288;6.056;2023-04-06T17:54:03;21.42;;;9.13;;
69750;SDS011;57335;52.288;6.056;2023-04-06T17:56:30;19.85;;;8.80;;
69750;SDS011;57335;52.288;6.056;2023-04-06T17:58:56;22.83;;;9.00;;
69750;SDS011;57335;52.288;6.056;2023-04-06T18:01:23;20.67;;;9.05;;
69750;SDS011;57335;52.288;6.056;2023-04-06T18:03:49;19.92;;;8.43;;
69750;SDS011;57335;52.288;6.056;2023-04-06T18:06:16;23.33;;;8.75;;
69750;SDS011;57335;52.288;6.056;2023-04-06T18:08:43;22.42;;;9.55;;
69750;SDS011;57335;52.288;6.056;2023-04-06T18:11:18;20.50;;;8.98;;
69750;SDS011;57335;52.288;6.056;2023-04-06T18:13:45;24.85;;;10.02;;
69750;SDS011;57335;52.288;6.056;2023-04-06T18:16:13;20.42;;;9.18;;
69750;SDS011;57335;52.288;6.056;2023-04-06T18:18:40;16.15;;;7.88;;
69750;SDS011;57335;52.288;6.056;2023-04-06T18:21:07;22.67;;;9.40;;
69750;SDS011;57335;52.288;6.056;2023-04-06T18:23:33;24.35;;;9.88;;
69750;SDS011;57335;52.288;6.056;2023-04-06T18:26:00;21.35;;;9.18;;
69750;SDS011;57335;52.288;6.056;2023-04-06T18:28:26;21.20;;;10.00;;
69750;SDS011;57335;52.288;6.056;2023-04-06T18:30:53;23.35;;;9.65;;
69750;SDS011;57335;52.288;6.056;2023-04-06T18:33:20;22.20;;;9.70;;
69750;SDS011;57335;52.288;6.056;2023-04-06T18:35:46;20.55;;;9.50;;
69750;SDS011;57335;52.288;6.056;2023-04-06T18:38:13;26.52;;;10.57;;
69750;SDS011;57335;52.288;6.056;2023-04-06T18:40:40;24.00;;;9.88;;
69750;SDS011;57335;52.288;6.056;2023-04-06T18:43:07;23.58;;;9.77;;
69750;SDS011;57335;52.288;6.056;2023-04-06T18:45:35;26.02;;;10.90;;
69750;SDS011;57335;52.288;6.056;2023-04-06T18:48:02;21.00;;;9.00;;
69750;SDS011;57335;52.288;6.056;2023-04-06T18:50:28;21.40;;;10.10;;
69750;SDS011;57335;52.288;6.056;2023-04-06T18:52:55;23.70;;;9.98;;
69750;SDS011;57335;52.288;6.056;2023-04-06T18:55:21;20.77;;;9.13;;
69750;SDS011;57335;52.288;6.056;2023-04-06T18:57:48;26.30;;;11.80;;
69750;SDS011;57335;52.288;6.056;2023-04-06T19:00:14;23.80;;;10.65;;
69750;SDS011;57335;52.288;6.056;2023-04-06T19:02:41;26.38;;;10.73;;
69750;SDS011;57335;52.288;6.056;2023-04-06T19:05:11;28.77;;;11.73;;
69750;SDS011;57335;52.288;6.056;2023-04-06T19:07:39;29.30;;;11.82;;
69750;SDS011;57335;52.288;6.056;2023-04-06T19:10:05;30.50;;;12.30;;
69750;SDS011;57335;52.288;6.056;2023-04-06T19:12:33;22.48;;;10.48;;
69750;SDS011;57335;52.288;6.056;2023-04-06T19:15:04;25.35;;;12.23;;
69750;SDS011;57335;52.288;6.056;2023-04-06T19:17:32;25.63;;;12.30;;
69750;SDS011;57335;52.288;6.056;2023-04-06T19:19:58;28.92;;;12.57;;
69750;SDS011;57335;52.288;6.056;2023-04-06T19:22:25;31.60;;;13.43;;
69750;SDS011;57335;52.288;6.056;2023-04-06T19:24:51;27.00;;;11.93;;
69750;SDS011;57335;52.288;6.056;2023-04-06T19:27:18;31.75;;;13.15;;
69750;SDS011;57335;52.288;6.056;2023-04-06T19:29:44;31.65;;;12.32;;
69750;SDS011;57335;52.288;6.056;2023-04-06T19:32:10;28.00;;;12.80;;
69750;SDS011;57335;52.288;6.056;2023-04-06T19:34:37;25.33;;;12.05;;
69750;SDS011;57335;52.288;6.056;2023-04-06T19:37:04;33.58;;;13.13;;
69750;SDS011;57335;52.288;6.056;2023-04-06T19:39:31;31.15;;;12.25;;
69750;SDS011;57335;52.288;6.056;2023-04-06T19:41:57;30.35;;;12.70;;
69750;SDS011;57335;52.288;6.056;2023-04-06T19:44:24;30.17;;;12.57;;
69750;SDS011;57335;52.288;6.056;2023-04-06T19:46:50;28.65;;;12.93;;
69750;SDS011;57335;52.288;6.056;2023-04-06T19:49:17;26.13;;;12.05;;
69750;SDS011;57335;52.288;6.056;2023-04-06T19:51:43;27.45;;;13.05;;
69750;SDS011;57335;52.288;6.056;2023-04-06T19:54:10;30.80;;;13.25;;
69750;SDS011;57335;52.288;6.056;2023-04-06T19:56:36;29.65;;;13.40;;
69750;SDS011;57335;52.288;6.056;2023-04-06T19:59:02;34.33;;;13.15;;
69750;SDS011;57335;52.288;6.056;2023-04-06T20:01:29;28.20;;;13.02;;
69750;SDS011;57335;52.288;6.056;2023-04-06T20:03:55;27.92;;;13.82;;
69750;SDS011;57335;52.288;6.056;2023-04-06T20:06:22;29.85;;;13.52;;
69750;SDS011;57335;52.288;6.056;2023-04-06T20:08:48;28.40;;;12.75;;
69750;SDS011;57335;52.288;6.056;2023-04-06T20:11:15;31.77;;;13.93;;
69750;SDS011;57335;52.288;6.056;2023-04-06T20:13:41;32.20;;;13.45;;
69750;SDS011;57335;52.288;6.056;2023-04-06T20:16:08;28.50;;;13.20;;
69750;SDS011;57335;52.288;6.056;2023-04-06T20:18:34;30.17;;;13.80;;
69750;SDS011;57335;52.288;6.056;2023-04-06T20:21:01;33.10;;;14.00;;
69750;SDS011;57335;52.288;6.056;2023-04-06T20:23:27;32.22;;;13.80;;
69750;SDS011;57335;52.288;6.056;2023-04-06T20:25:53;31.63;;;13.98;;
69750;SDS011;57335;52.288;6.056;2023-04-06T20:28:20;29.95;;;13.68;;
69750;SDS011;57335;52.288;6.056;2023-04-06T20:30:51;29.38;;;13.05;;
69750;SDS011;57335;52.288;6.056;2023-04-06T20:33:18;30.58;;;13.68;;
69750;SDS011;57335;52.288;6.056;2023-04-06T20:35:45;29.10;;;12.43;;
69750;SDS011;57335;52.288;6.056;2023-04-06T20:38:11;30.67;;;13.38;;
69750;SDS011;57335;52.288;6.056;2023-04-06T20:40:42;30.33;;;13.82;;
69750;SDS011;57335;52.288;6.056;2023-04-06T20:43:09;31.75;;;14.02;;
69750;SDS011;57335;52.288;6.056;2023-04-06T20:45:36;29.80;;;13.68;;
69750;SDS011;57335;52.288;6.056;2023-04-06T20:48:02;33.60;;;14.65;;
69750;SDS011;57335;52.288;6.056;2023-04-06T20:50:29;31.35;;;13.25;;
69750;SDS011;57335;52.288;6.056;2023-04-06T20:52:55;31.73;;;13.25;;
69750;SDS011;57335;52.288;6.056;2023-04-06T20:55:22;28.02;;;12.65;;
69750;SDS011;57335;52.288;6.056;2023-04-06T20:57:48;31.98;;;14.43;;
69750;SDS011;57335;52.288;6.056;2023-04-06T21:00:15;30.77;;;12.85;;
69750;SDS011;57335;52.288;6.056;2023-04-06T21:02:41;29.88;;;13.57;;
69750;SDS011;57335;52.288;6.056;2023-04-06T21:05:08;31.10;;;13.32;;
69750;SDS011;57335;52.288;6.056;2023-04-06T21:07:35;32.33;;;13.75;;
69750;SDS011;57335;52.288;6.056;2023-04-06T21:10:02;30.42;;;12.43;;
69750;SDS011;57335;52.288;6.056;2023-04-06T21:12:29;32.25;;;13.32;;
69750;SDS011;57335;52.288;6.056;2023-04-06T21:14:56;32.35;;;13.00;;
69750;SDS011;57335;52.288;6.056;2023-04-06T21:17:22;31.67;;;13.15;;
69750;SDS011;57335;52.288;6.056;2023-04-06T21:19:49;32.40;;;13.07;;
69750;SDS011;57335;52.288;6.056;2023-04-06T21:22:16;33.83;;;13.38;;
69750;SDS011;57335;52.288;6.056;2023-04-06T21:24:42;31.40;;;13.57;;
69750;SDS011;57335;52.288;6.056;2023-04-06T21:27:09;31.98;;;13.38;;
69750;SDS011;57335;52.288;6.056;2023-04-06T21:29:35;31.95;;;13.65;;
69750;SDS011;57335;52.288;6.056;2023-04-06T21:32:01;35.17;;;14.20;;
69750;SDS011;57335;52.288;6.056;2023-04-06T21:34:28;29.95;;;13.32;;
69750;SDS011;57335;52.288;6.056;2023-04-06T21:36:54;30.55;;;12.90;;
69750;SDS011;57335;52.288;6.056;2023-04-06T21:39:21;30.02;;;13.18;;
69750;SDS011;57335;52.288;6.056;2023-04-06T21:41:47;31.05;;;13.68;;
69750;SDS011;57335;52.288;6.056;2023-04-06T21:44:14;31.08;;;13.00;;
69750;SDS011;57335;52.288;6.056;2023-04-06T21:46:40;31.02;;;12.88;;
69750;SDS011;57335;52.288;6.056;2023-04-06T21:49:07;29.15;;;12.85;;
69750;SDS011;57335;52.288;6.056;2023-04-06T21:51:33;31.83;;;13.43;;
69750;SDS011;57335;52.288;6.056;2023-04-06T21:54:00;33.15;;;13.35;;
69750;SDS011;57335;52.288;6.056;2023-04-06T21:56:26;35.75;;;14.48;;
69750;SDS011;57335;52.288;6.056;2023-04-06T21:58:53;31.88;;;13.70;;
69750;SDS011;57335;52.288;6.056;2023-04-06T22:01:19;32.60;;;14.43;;
69750;SDS011;57335;52.288;6.056;2023-04-06T22:03:46;30.63;;;13.48;;
69750;SDS011;57335;52.288;6.056;2023-04-06T22:06:13;34.28;;;14.68;;
69750;SDS011;57335;52.288;6.056;2023-04-06T22:08:39;32.38;;;13.32;;
69750;SDS011;57335;52.288;6.056;2023-04-06T22:11:06;32.55;;;13.50;;
69750;SDS011;57335;52.288;6.056;2023-04-06T22:13:34;32.03;;;13.35;;